createdAt,value
2019-06-10T00:01:36.892Z,51.10
2019-06-10T00:04:08.760Z,51.10
2019-06-10T00:06:37.882Z,51.10
2019-06-10T00:09:08.348Z,51.20
2019-06-10T00:11:37.974Z,51.20
2019-06-10T00:14:07.715Z,51.20
2019-06-10T00:16:37.354Z,51.10
2019-06-10T00:19:09.566Z,51.10
2019-06-10T00:21:38.561Z,51.10
2019-06-10T00:24:08.563Z,51.10
2019-06-10T00:26:38.309Z,51.20
2019-06-10T00:29:09.680Z,51.20
2019-06-10T00:31:41.580Z,51.20
2019-06-10T00:34:12.385Z,51.20
2019-06-10T00:36:42.012Z,51.20
2019-06-10T00:39:13.594Z,51.30
2019-06-10T00:41:43.062Z,51.30
2019-06-10T00:44:12.923Z,51.20
2019-06-10T00:46:43.076Z,51.10
2019-06-10T00:49:14.686Z,51.20
2019-06-10T00:51:44.047Z,51.30
2019-06-10T00:54:15.704Z,51.20
2019-06-10T00:56:44.979Z,51.20
2019-06-10T00:59:15.370Z,51.20
2019-06-10T01:01:45.674Z,51.20
2019-06-10T01:04:16.443Z,51.10
2019-06-10T01:06:46.709Z,51.20
2019-06-10T01:09:16.331Z,51.20
2019-06-10T01:11:45.906Z,51.20
2019-06-10T01:14:17.126Z,51.30
2019-06-10T01:16:46.765Z,51.20
2019-06-10T01:19:16.400Z,51.30
2019-06-10T01:21:46.067Z,51.30
2019-06-10T01:24:15.650Z,51.30
2019-06-10T01:26:45.272Z,51.30
2019-06-10T01:29:15.600Z,51.20
2019-06-10T01:31:45.741Z,51.20
2019-06-10T01:34:15.341Z,51.20
2019-06-10T01:36:44.922Z,51.20
2019-06-10T01:39:15.174Z,51.20
2019-06-10T01:41:45.875Z,51.30
2019-06-10T01:44:16.452Z,51.30
2019-06-10T01:46:46.849Z,51.30
2019-06-10T01:49:18.024Z,51.30
2019-06-10T01:51:47.744Z,51.30
2019-06-10T01:54:18.459Z,51.40
2019-06-10T01:56:50.834Z,51.30
2019-06-10T01:59:21.946Z,51.30
2019-06-10T02:02:15.808Z,51.30
2019-06-10T02:04:44.499Z,51.30
2019-06-10T02:07:16.877Z,51.30
2019-06-10T02:09:45.401Z,51.30
2019-06-10T02:12:17.577Z,51.30
2019-06-10T02:14:46.367Z,51.30
2019-06-10T02:17:17.607Z,51.30
2019-06-10T02:19:47.626Z,51.30
2019-06-10T02:22:18.527Z,51.30
2019-06-10T02:24:50.537Z,51.30
2019-06-10T02:27:21.866Z,51.30
2019-06-10T02:29:51.164Z,51.40
2019-06-10T02:32:30.765Z,51.30
2019-06-10T02:35:03.452Z,51.30
2019-06-10T02:37:31.349Z,51.30
2019-06-10T02:39:54.687Z,51.30
2019-06-10T02:42:30.918Z,51.40
2019-06-10T02:45:03.719Z,51.30
2019-06-10T02:47:37.664Z,51.20
2019-06-10T02:50:08.811Z,51.20
2019-06-10T02:52:38.355Z,51.20
2019-06-10T02:55:08.339Z,51.30
2019-06-10T02:57:40.385Z,51.90
2019-06-10T03:00:19.353Z,51.30
2019-06-10T03:02:45.087Z,51.30
2019-06-10T03:05:14.283Z,51.30
2019-06-10T03:07:44.915Z,51.30
2019-06-10T03:10:16.674Z,51.30
2019-06-10T03:12:47.476Z,51.30
2019-06-10T03:15:17.911Z,51.30
2019-06-10T03:17:48.040Z,51.30
2019-06-10T03:20:17.924Z,51.30
2019-06-10T03:22:48.050Z,51.30
2019-06-10T03:25:18.285Z,51.30
2019-06-10T03:27:48.553Z,51.30
2019-06-10T03:30:26.381Z,51.30
2019-06-10T03:32:51.127Z,51.30
2019-06-10T03:35:23.799Z,51.30
2019-06-10T03:37:52.824Z,51.30
2019-06-10T03:40:24.432Z,51.30
2019-06-10T03:42:54.317Z,51.30
2019-06-10T03:45:25.597Z,51.30
2019-06-10T03:47:55.258Z,51.30
2019-06-10T03:50:26.826Z,51.30
2019-06-10T03:52:57.172Z,51.30
2019-06-10T03:55:27.980Z,51.30
2019-06-10T03:57:58.109Z,51.30
2019-06-10T04:00:28.950Z,51.30
2019-06-10T04:02:59.269Z,51.30
2019-06-10T04:05:28.974Z,51.40
2019-06-10T04:08:02.157Z,51.40
2019-06-10T04:10:32.553Z,51.30
2019-06-10T04:13:02.638Z,51.40
2019-06-10T04:15:32.871Z,51.30
2019-06-10T04:18:03.881Z,51.30
2019-06-10T04:20:33.973Z,51.40
2019-06-10T04:23:03.603Z,51.20
2019-06-10T04:25:33.293Z,51.30
2019-06-10T04:28:03.312Z,51.30
2019-06-10T04:30:33.533Z,51.20
2019-06-10T04:33:03.145Z,51.30
2019-06-10T04:35:33.664Z,51.20
2019-06-10T04:38:03.931Z,51.30
2019-06-10T04:40:33.557Z,51.20
2019-06-10T04:43:03.175Z,51.20
2019-06-10T04:45:34.435Z,51.30
2019-06-10T04:48:04.055Z,51.30
2019-06-10T04:50:42.259Z,51.20
2019-06-10T04:53:05.015Z,51.20
2019-06-10T04:55:34.667Z,51.20
2019-06-10T04:58:04.257Z,51.20
2019-06-10T05:00:33.910Z,51.20
2019-06-10T05:03:03.501Z,51.20
2019-06-10T05:05:33.110Z,51.20
2019-06-10T05:08:02.861Z,51.20
2019-06-10T05:10:33.228Z,51.20
2019-06-10T05:13:04.473Z,51.10
2019-06-10T05:15:34.970Z,51.20
2019-06-10T05:18:06.209Z,51.20
2019-06-10T05:20:50.962Z,51.10
2019-06-10T05:23:07.119Z,51.20
2019-06-10T05:25:36.682Z,51.20
2019-06-10T05:28:06.304Z,51.20
2019-06-10T05:30:36.007Z,51.20
2019-06-10T05:33:05.663Z,51.20
2019-06-10T05:35:35.259Z,51.10
2019-06-10T05:38:04.848Z,52.30
2019-06-10T05:40:34.484Z,51.10
2019-06-10T05:43:05.676Z,51.20
2019-06-10T05:45:35.366Z,51.10
2019-06-10T05:48:04.977Z,51.10
2019-06-10T05:50:35.000Z,51.10
2019-06-10T05:53:05.335Z,51.20
2019-06-10T05:55:35.380Z,51.10
2019-06-10T05:58:05.514Z,51.20
2019-06-10T06:00:35.648Z,51.10
2019-06-10T06:03:05.857Z,51.10
2019-06-10T06:05:38.098Z,51.20
2019-06-10T06:08:09.110Z,51.10
2019-06-10T06:10:42.366Z,51.20
2019-06-10T06:13:12.780Z,51.10
2019-06-10T06:15:42.967Z,51.10
2019-06-10T06:18:14.276Z,51.10
2019-06-10T06:20:43.924Z,51.10
2019-06-10T06:23:13.509Z,51.00
2019-06-10T06:25:46.764Z,51.00
2019-06-10T06:28:16.163Z,51.10
2019-06-10T06:30:45.794Z,51.00
2019-06-10T06:33:15.419Z,51.00
2019-06-10T06:35:46.582Z,51.00
2019-06-10T06:38:16.341Z,51.00
2019-06-10T06:40:46.006Z,51.00
2019-06-10T06:43:15.683Z,51.10
2019-06-10T06:45:45.242Z,51.00
2019-06-10T06:48:14.856Z,51.00
2019-06-10T06:51:00.104Z,51.00
2019-06-10T06:53:25.747Z,51.00
2019-06-10T06:55:47.088Z,50.90
2019-06-10T06:58:16.682Z,50.90
2019-06-10T07:01:00.295Z,51.00
2019-06-10T07:03:17.647Z,51.00
2019-06-10T07:05:47.307Z,51.00
2019-06-10T07:08:16.884Z,51.00
2019-06-10T07:10:46.451Z,50.90
2019-06-10T07:13:16.113Z,51.00
2019-06-10T07:15:47.283Z,50.90
2019-06-10T07:18:17.044Z,51.00
2019-06-10T07:20:46.708Z,51.00
2019-06-10T07:23:16.340Z,51.00
2019-06-10T07:25:47.868Z,51.00
2019-06-10T07:28:17.962Z,51.00
2019-06-10T07:30:52.883Z,51.00
2019-06-10T07:33:18.998Z,51.00
2019-06-10T07:35:48.636Z,51.10
2019-06-10T07:38:22.319Z,51.00
2019-06-10T07:40:53.049Z,51.00
2019-06-10T07:43:23.150Z,51.00
2019-06-10T07:45:53.535Z,51.00
2019-06-10T07:48:23.178Z,51.00
2019-06-10T07:50:53.228Z,51.00
2019-06-10T07:53:23.425Z,51.00
2019-06-10T07:55:53.690Z,51.00
2019-06-10T07:58:23.240Z,51.00
2019-06-10T08:00:53.654Z,50.90
2019-06-10T08:03:23.317Z,50.90
2019-06-10T08:05:52.905Z,51.00
2019-06-10T08:08:23.533Z,51.00
2019-06-10T08:10:53.715Z,51.00
2019-06-10T08:13:23.397Z,51.00
2019-06-10T08:15:53.331Z,51.10
2019-06-10T08:18:24.316Z,51.00
2019-06-10T08:20:54.054Z,51.00
2019-06-10T08:23:23.908Z,51.00
2019-06-10T08:25:57.394Z,51.00
2019-06-10T08:28:26.563Z,51.00
2019-06-10T08:30:56.139Z,50.90
2019-06-10T08:33:26.842Z,51.00
2019-06-10T08:36:00.383Z,51.00
2019-06-10T08:38:27.865Z,50.90
2019-06-10T08:40:57.503Z,50.90
2019-06-10T08:43:27.111Z,51.00
2019-06-10T08:45:56.667Z,50.90
2019-06-10T08:48:26.309Z,50.90
2019-06-10T08:50:55.936Z,50.80
2019-06-10T08:53:25.475Z,50.90
2019-06-10T08:55:55.072Z,50.90
2019-06-10T08:58:24.721Z,50.90
2019-06-10T09:00:54.446Z,50.80
2019-06-10T09:03:24.098Z,50.80
2019-06-10T09:05:56.235Z,50.90
2019-06-10T09:08:25.423Z,50.90
2019-06-10T09:10:55.631Z,50.80
2019-06-10T09:13:25.867Z,50.70
2019-06-10T09:16:11.714Z,50.80
2019-06-10T09:18:27.765Z,50.80
2019-06-10T09:20:57.477Z,50.80
2019-06-10T09:23:27.092Z,50.80
2019-06-10T09:25:57.745Z,50.80
2019-06-10T09:28:28.867Z,50.80
2019-06-10T09:30:59.662Z,50.80
2019-06-10T09:33:30.016Z,50.80
2019-06-10T09:35:59.630Z,50.70
2019-06-10T09:38:29.239Z,50.80
2019-06-10T09:41:04.904Z,50.80
2019-06-10T09:43:32.975Z,50.80
2019-06-10T09:46:03.635Z,50.60
2019-06-10T09:48:33.567Z,50.80
2019-06-10T09:51:04.058Z,50.70
2019-06-10T09:53:42.414Z,50.80
2019-06-10T09:56:05.000Z,50.80
2019-06-10T09:58:34.605Z,50.80
2019-06-10T10:01:04.833Z,50.80
2019-06-10T10:03:35.057Z,50.80
2019-06-10T10:06:14.413Z,50.70
2019-06-10T10:08:36.104Z,50.80
2019-06-10T10:11:05.733Z,50.80
2019-06-10T10:13:35.659Z,50.70
2019-06-10T10:16:05.909Z,50.80
2019-06-10T10:18:35.622Z,50.70
2019-06-10T10:21:05.422Z,50.70
2019-06-10T10:23:50.137Z,50.80
2019-06-10T10:26:06.424Z,50.80
2019-06-10T10:28:36.055Z,50.70
2019-06-10T10:31:05.690Z,50.70
2019-06-10T10:33:35.376Z,50.70
2019-06-10T10:36:04.969Z,50.80
2019-06-10T10:38:35.029Z,50.80
2019-06-10T10:41:05.400Z,50.80
2019-06-10T10:43:37.755Z,50.60
2019-06-10T10:46:06.457Z,50.70
2019-06-10T10:48:36.155Z,50.70
2019-06-10T10:51:05.775Z,50.60
2019-06-10T10:53:37.120Z,50.60
2019-06-10T10:56:06.711Z,50.70
2019-06-10T10:58:36.341Z,50.70
2019-06-10T11:01:05.976Z,50.70
2019-06-10T11:03:35.579Z,50.70
2019-06-10T11:06:05.286Z,50.80
2019-06-10T11:08:36.597Z,50.80
2019-06-10T11:11:06.192Z,50.60
2019-06-10T11:13:37.395Z,50.70
2019-06-10T11:16:07.070Z,50.70
2019-06-10T11:18:36.820Z,50.60
2019-06-10T11:21:06.556Z,50.80
2019-06-10T11:23:36.280Z,50.80
2019-06-10T11:26:05.870Z,50.70
2019-06-10T11:28:35.499Z,50.70
2019-06-10T11:31:05.094Z,51.40
2019-06-10T11:33:34.956Z,50.70
2019-06-10T11:36:04.603Z,50.70
2019-06-10T11:38:34.230Z,50.80
2019-06-10T11:41:03.881Z,50.80
2019-06-10T11:43:33.502Z,50.80
2019-06-10T11:46:06.990Z,50.90
2019-06-10T11:48:34.407Z,50.70
2019-06-10T11:51:04.849Z,50.70
2019-06-10T11:53:35.132Z,50.80
2019-06-10T11:56:04.882Z,50.90
2019-06-10T11:58:36.154Z,50.80
2019-06-10T12:01:05.797Z,50.80
2019-06-10T12:03:35.469Z,50.70
2019-06-10T12:06:05.781Z,50.70
2019-06-10T12:08:35.982Z,50.80
2019-06-10T12:11:05.596Z,50.90
2019-06-10T12:13:35.216Z,50.80
2019-06-10T12:17:05.177Z,50.90
2019-06-10T12:18:38.429Z,50.80
2019-06-10T12:21:08.025Z,50.80
2019-06-10T12:23:37.615Z,50.90
2019-06-10T12:26:07.226Z,50.80
2019-06-10T12:28:36.780Z,51.00
2019-06-10T12:31:07.458Z,51.00
2019-06-10T12:33:37.751Z,50.80
2019-06-10T12:36:07.745Z,50.80
2019-06-10T12:38:38.003Z,50.80
2019-06-10T12:41:10.108Z,50.80
2019-06-10T12:43:38.885Z,50.80
2019-06-10T12:46:08.509Z,51.00
2019-06-10T12:48:38.093Z,50.80
2019-06-10T12:51:09.465Z,51.00
2019-06-10T12:53:39.019Z,50.80
2019-06-10T12:56:11.350Z,50.90
2019-06-10T12:58:42.893Z,51.00
2019-06-10T13:01:12.249Z,50.90
2019-06-10T13:03:43.729Z,51.20
2019-06-10T13:06:13.161Z,51.00
2019-06-10T13:08:43.113Z,50.80
2019-06-10T13:11:14.745Z,51.10
2019-06-10T13:13:45.362Z,51.20
2019-06-10T13:16:15.632Z,51.00
2019-06-10T13:18:45.280Z,51.10
2019-06-10T13:21:17.799Z,51.00
2019-06-10T13:23:46.311Z,51.00
2019-06-10T13:26:17.839Z,50.90
2019-06-10T13:28:47.300Z,51.00
2019-06-10T13:31:17.009Z,51.10
2019-06-10T13:33:46.662Z,51.10
2019-06-10T13:36:16.274Z,51.00
2019-06-10T13:38:45.905Z,51.10
2019-06-10T13:41:15.593Z,50.90
2019-06-10T13:43:45.268Z,51.10
2019-06-10T13:46:14.846Z,51.10
2019-06-10T13:48:44.631Z,50.90
2019-06-10T13:51:15.677Z,50.90
2019-06-10T13:53:46.242Z,51.10
2019-06-10T13:56:37.706Z,50.90
2019-06-10T13:58:47.670Z,50.90
2019-06-10T14:01:21.701Z,50.90
2019-06-10T14:03:48.565Z,51.00
2019-06-10T14:06:35.867Z,51.10
2019-06-10T14:08:54.574Z,51.00
2019-06-10T14:11:24.799Z,51.00
2019-06-10T14:13:52.747Z,51.30
2019-06-10T14:16:23.603Z,51.00
2019-06-10T14:18:54.285Z,50.90
2019-06-10T14:21:24.546Z,51.00
2019-06-10T14:23:54.270Z,51.10
2019-06-10T14:26:36.861Z,51.00
2019-06-10T14:28:55.167Z,51.00
2019-06-10T14:31:39.076Z,50.90
2019-06-10T14:33:57.672Z,50.90
2019-06-10T14:36:28.174Z,51.10
2019-06-10T14:38:57.749Z,51.10
2019-06-10T14:41:27.357Z,50.90
2019-06-10T14:43:56.981Z,51.10
2019-06-10T14:46:26.674Z,51.00
2019-06-10T14:48:56.292Z,50.90
2019-06-10T14:51:25.896Z,50.90
2019-06-10T14:53:55.494Z,51.00
2019-06-10T14:56:25.091Z,51.00
2019-06-10T14:58:55.089Z,51.00
2019-06-10T15:01:25.941Z,51.00
2019-06-10T15:03:56.016Z,51.00
2019-06-10T15:06:25.700Z,51.00
2019-06-10T15:08:55.341Z,51.10
2019-06-10T15:11:27.604Z,51.00
2019-06-10T15:13:56.284Z,51.10
2019-06-10T15:16:25.939Z,51.10
2019-06-10T15:19:10.912Z,51.10
2019-06-10T15:21:28.564Z,51.20
2019-06-10T15:23:58.164Z,51.20
2019-06-10T15:26:27.754Z,51.30
2019-06-10T15:28:57.368Z,51.30
2019-06-10T15:31:26.992Z,51.30
2019-06-10T15:33:56.554Z,51.30
2019-06-10T15:36:26.174Z,51.30
2019-06-10T15:38:55.825Z,51.30
2019-06-10T15:41:25.423Z,51.40
2019-06-10T15:43:55.097Z,51.80
2019-06-10T15:46:24.682Z,51.20
2019-06-10T15:48:54.388Z,51.30
2019-06-10T15:51:26.179Z,51.40
2019-06-10T15:53:55.446Z,51.60
2019-06-10T15:56:38.689Z,51.60
2019-06-10T15:58:56.390Z,51.50
2019-06-10T16:01:27.364Z,51.60
2019-06-10T16:03:58.241Z,51.60
2019-06-10T16:06:27.818Z,51.60
2019-06-10T16:08:57.430Z,51.70
2019-06-10T16:11:27.341Z,51.70
2019-06-10T16:13:57.489Z,51.70
2019-06-10T16:16:28.735Z,51.60
2019-06-10T16:18:58.359Z,51.60
2019-06-10T16:21:29.678Z,51.60
2019-06-10T16:23:59.261Z,51.70
2019-06-10T16:26:28.832Z,51.60
2019-06-10T16:28:58.506Z,51.80
2019-06-10T16:31:28.173Z,51.70
2019-06-10T16:33:57.741Z,51.80
2019-06-10T16:36:32.109Z,51.70
2019-06-10T16:39:03.415Z,51.70
2019-06-10T16:41:33.051Z,51.70
2019-06-10T16:44:03.078Z,51.80
2019-06-10T16:46:33.181Z,52.10
2019-06-10T16:49:03.256Z,51.60
2019-06-10T16:51:33.429Z,51.60
2019-06-10T16:54:03.051Z,51.70
2019-06-10T16:56:33.569Z,51.20
2019-06-10T16:59:03.833Z,51.80
2019-06-10T17:01:33.497Z,51.80
2019-06-10T17:04:03.044Z,51.80
2019-06-10T17:06:32.813Z,51.80
2019-06-10T17:09:04.771Z,51.90
2019-06-10T17:11:36.666Z,51.90
2019-06-10T17:14:06.364Z,51.90
2019-06-10T17:16:35.896Z,51.90
2019-06-10T17:19:05.565Z,51.90
2019-06-10T17:21:35.203Z,51.90
2019-06-10T17:24:04.835Z,51.90
2019-06-10T17:26:37.959Z,51.90
2019-06-10T17:29:05.736Z,51.90
2019-06-10T17:31:35.441Z,51.90
2019-06-10T17:34:05.034Z,52.00
2019-06-10T17:36:35.413Z,52.10
2019-06-10T17:39:07.617Z,52.10
2019-06-10T17:41:37.218Z,52.10
2019-06-10T17:44:06.787Z,52.00
2019-06-10T17:46:36.379Z,52.10
2019-06-10T17:49:05.960Z,52.10
2019-06-10T17:51:35.826Z,52.10
2019-06-10T17:54:05.945Z,52.00
2019-06-10T17:56:36.322Z,52.10
2019-06-10T17:59:06.553Z,52.00
2019-06-10T18:01:36.168Z,52.00
2019-06-10T18:04:05.855Z,52.00
2019-06-10T18:06:36.472Z,52.00
2019-06-10T18:09:07.606Z,52.00
2019-06-10T18:11:37.216Z,52.10
2019-06-10T18:14:07.834Z,52.10
2019-06-10T18:16:37.428Z,52.10
2019-06-10T18:19:07.067Z,52.10
2019-06-10T18:21:36.635Z,52.10
2019-06-10T18:24:08.546Z,52.10
2019-06-10T18:26:38.024Z,52.10
2019-06-10T18:29:09.566Z,52.10
2019-06-10T18:31:39.782Z,52.10
2019-06-10T18:34:09.444Z,52.20
2019-06-10T18:36:39.196Z,52.10
2019-06-10T18:39:08.928Z,52.10
2019-06-10T18:41:41.514Z,52.10
2019-06-10T18:44:22.544Z,52.20
2019-06-10T18:46:43.528Z,52.20
2019-06-10T18:49:13.771Z,52.10
2019-06-10T18:51:43.801Z,52.20
2019-06-10T18:54:13.927Z,52.30
2019-06-10T18:56:43.527Z,52.20
2019-06-10T18:59:19.787Z,52.20
2019-06-10T19:01:44.467Z,52.20
2019-06-10T19:04:14.073Z,52.20
2019-06-10T19:06:43.694Z,52.20
2019-06-10T19:09:13.340Z,52.20
2019-06-10T19:11:43.522Z,52.30
2019-06-10T19:14:14.667Z,52.30
2019-06-10T19:16:44.245Z,52.30
2019-06-10T19:19:13.915Z,52.30
2019-06-10T19:21:43.904Z,52.20
2019-06-10T19:24:16.021Z,52.00
2019-06-10T19:26:45.619Z,52.10
2019-06-10T19:29:29.826Z,52.10
2019-06-10T19:31:46.760Z,52.20
2019-06-10T19:34:18.060Z,52.20
2019-06-10T19:36:48.899Z,52.20
2019-06-10T19:39:18.632Z,52.20
2019-06-10T19:41:48.335Z,52.20
2019-06-10T19:44:18.064Z,52.30
2019-06-10T19:46:47.750Z,52.20
2019-06-10T19:49:17.403Z,52.30
2019-06-10T19:51:47.648Z,52.30
2019-06-10T19:54:17.504Z,52.30
2019-06-10T19:56:47.161Z,52.30
2019-06-10T19:59:16.872Z,52.30
2019-06-10T20:01:48.758Z,52.20
2019-06-10T20:04:18.504Z,52.30
2019-06-10T20:06:50.829Z,52.20
2019-06-10T20:09:22.459Z,52.20
2019-06-10T20:11:51.300Z,52.30
2019-06-10T20:14:21.012Z,52.30
2019-06-10T20:16:52.729Z,52.30
2019-06-10T20:19:22.521Z,52.40
2019-06-10T20:21:53.701Z,52.50
2019-06-10T20:24:23.426Z,52.50
2019-06-10T20:26:53.181Z,52.50
2019-06-10T20:29:22.848Z,52.40
2019-06-10T20:31:52.635Z,52.50
2019-06-10T20:34:25.772Z,52.50
2019-06-10T20:36:54.383Z,52.50
2019-06-10T20:39:24.969Z,52.50
2019-06-10T20:41:55.911Z,53.10
2019-06-10T20:44:26.247Z,52.50
2019-06-10T20:46:55.930Z,52.50
2019-06-10T20:49:25.568Z,52.50
2019-06-10T20:52:08.102Z,52.50
2019-06-10T20:54:26.568Z,52.50
2019-06-10T20:56:56.291Z,52.50
2019-06-10T20:59:26.380Z,52.50
2019-06-10T21:01:56.545Z,52.50
2019-06-10T21:04:26.326Z,52.40
2019-06-10T21:06:56.111Z,52.40
2019-06-10T21:09:26.000Z,52.50
2019-06-10T21:11:55.806Z,52.50
2019-06-10T21:14:25.465Z,52.40
2019-06-10T21:16:55.512Z,52.50
2019-06-10T21:19:25.326Z,52.40
2019-06-10T21:21:55.087Z,52.50
2019-06-10T21:24:25.067Z,52.50
2019-06-10T21:26:55.082Z,52.50
2019-06-10T21:29:25.481Z,52.40
2019-06-10T21:31:55.284Z,52.00
2019-06-10T21:34:25.285Z,52.40
2019-06-10T21:36:56.556Z,52.40
2019-06-10T21:39:28.024Z,52.40
2019-06-10T21:41:58.088Z,52.40
2019-06-10T21:44:27.972Z,52.50
2019-06-10T21:46:58.071Z,52.40
2019-06-10T21:49:28.180Z,52.40
2019-06-10T21:51:58.193Z,52.50
2019-06-10T21:54:28.123Z,52.40
2019-06-10T21:56:58.858Z,52.50
2019-06-10T21:59:28.580Z,53.10
2019-06-10T22:01:58.235Z,52.50
2019-06-10T22:04:27.882Z,52.50
2019-06-10T22:06:57.506Z,52.40
2019-06-10T22:09:28.958Z,52.40
2019-06-10T22:11:58.658Z,52.20
2019-06-10T22:14:28.686Z,52.30
2019-06-10T22:16:58.785Z,52.30
2019-06-10T22:19:28.506Z,52.40
2019-06-10T22:21:58.237Z,52.90
2019-06-10T22:24:27.902Z,52.40
2019-06-10T22:26:57.531Z,52.40
2019-06-10T22:29:27.601Z,52.50
2019-06-10T22:31:57.547Z,52.50
2019-06-10T22:34:27.370Z,53.10
2019-06-10T22:36:57.649Z,52.50
2019-06-10T22:39:29.599Z,52.50
2019-06-10T22:41:59.700Z,52.70
2019-06-10T22:44:29.845Z,52.60
2019-06-10T22:47:00.076Z,52.50
2019-06-10T22:49:32.842Z,52.50
2019-06-10T22:52:02.382Z,52.50
2019-06-10T22:54:32.364Z,52.50
2019-06-10T22:57:02.992Z,52.50
2019-06-10T22:59:33.365Z,53.00
2019-06-10T23:02:03.212Z,52.50
2019-06-10T23:04:34.167Z,52.60
2019-06-10T23:07:04.003Z,52.60
2019-06-10T23:09:33.758Z,52.60
2019-06-10T23:12:03.509Z,52.50
2019-06-10T23:14:33.429Z,52.60
2019-06-10T23:17:03.319Z,52.90
2019-06-10T23:19:33.301Z,52.60
2019-06-10T23:22:03.595Z,52.60
2019-06-10T23:24:33.269Z,52.50
2019-06-10T23:27:03.449Z,52.60
2019-06-10T23:29:34.759Z,52.50
2019-06-10T23:32:06.973Z,52.50
2019-06-10T23:34:36.902Z,52.60
2019-06-10T23:37:06.534Z,52.60
2019-06-10T23:39:36.609Z,52.60
2019-06-10T23:42:06.317Z,52.60
2019-06-10T23:44:35.840Z,52.60
2019-06-10T23:47:05.428Z,52.70
2019-06-10T23:49:36.038Z,52.60
2019-06-10T23:52:05.760Z,52.60
2019-06-10T23:54:36.396Z,52.50
2019-06-10T23:57:06.462Z,52.70
2019-06-10T23:59:36.773Z,52.70
